createdAt,value
2022-09-28T00:01:25.504Z,10.07
2022-09-28T00:04:28.471Z,10.01
2022-09-28T00:07:31.037Z,9.97
2022-09-28T00:10:33.746Z,9.86
2022-09-28T00:13:36.427Z,9.83
2022-09-28T00:16:44.429Z,9.79
2022-09-28T00:19:50.521Z,9.77
2022-09-28T00:22:53.243Z,9.79
2022-09-28T00:25:55.798Z,9.77
2022-09-28T00:29:00.723Z,9.70
2022-09-28T00:32:07.100Z,9.70
2022-09-28T00:35:10.079Z,9.72
2022-09-28T00:38:12.639Z,9.68
2022-09-28T00:41:15.964Z,9.97
2022-09-28T00:44:24.649Z,9.90
2022-09-28T00:47:50.951Z,9.87
2022-09-28T00:50:53.672Z,9.78
2022-09-28T00:53:57.247Z,9.77
2022-09-28T00:57:01.197Z,9.86
2022-09-28T01:00:06.206Z,9.90
2022-09-28T01:03:09.610Z,9.93
2022-09-28T01:06:23.377Z,10.04
2022-09-28T01:09:27.653Z,10.22
2022-09-28T01:12:30.525Z,10.30
2022-09-28T01:15:42.961Z,10.32
2022-09-28T01:18:52.590Z,10.26
2022-09-28T01:22:04.482Z,10.26
2022-09-28T01:25:21.432Z,10.19
2022-09-28T01:28:28.033Z,10.04
2022-09-28T01:31:35.156Z,10.00
2022-09-28T01:35:00.343Z,9.94
2022-09-28T01:38:11.469Z,9.98
2022-09-28T01:41:17.749Z,10.05
2022-09-28T01:44:23.167Z,9.96
2022-09-28T01:47:28.779Z,9.90
2022-09-28T01:50:38.056Z,9.92
2022-09-28T01:53:46.532Z,9.93
2022-09-28T01:57:00.500Z,9.90
2022-09-28T02:00:13.171Z,9.89
2022-09-28T02:03:32.541Z,9.88
2022-09-28T02:06:49.004Z,10.16
2022-09-28T02:10:00.729Z,10.22
2022-09-28T02:13:15.296Z,10.33
2022-09-28T02:16:41.947Z,10.40
2022-09-28T02:19:45.084Z,10.42
2022-09-28T02:22:53.603Z,10.32
2022-09-28T02:26:02.203Z,10.29
2022-09-28T02:29:04.744Z,10.36
2022-09-28T02:32:07.495Z,10.39
2022-09-28T02:35:13.634Z,10.30
2022-09-28T02:38:16.482Z,10.40
2022-09-28T02:41:37.356Z,10.41
2022-09-28T02:44:48.817Z,10.32
2022-09-28T02:48:24.052Z,10.29
2022-09-28T02:52:02.769Z,10.22
2022-09-28T02:55:17.389Z,10.22
2022-09-28T02:58:26.620Z,10.15
2022-09-28T03:01:32.065Z,10.06
2022-09-28T03:04:58.096Z,10.05
2022-09-28T03:08:06.857Z,10.04
2022-09-28T03:11:24.871Z,9.98
2022-09-28T03:14:27.445Z,9.88
2022-09-28T03:17:30.375Z,9.90
2022-09-28T03:20:33.611Z,9.89
2022-09-28T03:23:36.941Z,9.91
2022-09-28T03:26:39.743Z,9.93
2022-09-28T03:29:42.694Z,9.94
2022-09-28T03:32:45.392Z,9.87
2022-09-28T03:35:50.396Z,9.89
2022-09-28T03:38:56.123Z,9.77
2022-09-28T03:42:02.210Z,9.72
2022-09-28T03:45:06.209Z,9.70
2022-09-28T03:48:09.114Z,9.61
2022-09-28T03:51:12.713Z,9.64
2022-09-28T03:54:15.555Z,9.64
2022-09-28T03:57:17.991Z,9.70
2022-09-28T04:00:21.060Z,9.69
2022-09-28T04:03:23.859Z,9.77
2022-09-28T04:06:26.542Z,9.81
2022-09-28T04:09:31.127Z,9.82
2022-09-28T04:12:33.612Z,9.85
2022-09-28T04:15:38.456Z,9.86
2022-09-28T04:18:40.956Z,9.79
2022-09-28T04:21:47.052Z,9.77
2022-09-28T04:24:49.653Z,9.82
2022-09-28T04:28:12.264Z,9.77
2022-09-28T04:31:17.336Z,9.84
2022-09-28T04:34:22.314Z,9.83
2022-09-28T04:37:24.831Z,9.69
2022-09-28T04:40:27.747Z,9.69
2022-09-28T04:43:31.300Z,9.64
2022-09-28T04:46:35.499Z,9.74
2022-09-28T04:49:39.433Z,9.77
2022-09-28T04:52:42.578Z,9.72
2022-09-28T04:55:45.268Z,9.73
2022-09-28T04:58:52.570Z,9.77
2022-09-28T05:01:55.602Z,9.70
2022-09-28T05:04:59.387Z,9.68
2022-09-28T05:08:01.896Z,9.62
2022-09-28T05:11:07.460Z,9.55
2022-09-28T05:14:12.023Z,9.55
2022-09-28T05:17:15.374Z,9.49
2022-09-28T05:20:19.535Z,9.45
2022-09-28T05:23:22.303Z,9.34
2022-09-28T05:26:24.960Z,9.44
2022-09-28T05:29:31.897Z,9.34
2022-09-28T05:32:41.831Z,9.39
2022-09-28T05:35:49.769Z,9.33
2022-09-28T05:38:55.103Z,9.43
2022-09-28T05:41:58.059Z,9.72
2022-09-28T05:45:00.569Z,9.79
2022-09-28T05:48:03.448Z,10.05
2022-09-28T05:51:06.337Z,10.27
2022-09-28T05:54:09.156Z,10.44
2022-09-28T05:57:12.529Z,10.52
2022-09-28T06:00:21.057Z,10.64
2022-09-28T06:03:25.259Z,10.75
2022-09-28T06:06:27.862Z,10.89
2022-09-28T06:09:31.996Z,11.05
2022-09-28T06:12:35.522Z,11.22
2022-09-28T06:15:42.484Z,11.35
2022-09-28T06:18:46.188Z,11.49
2022-09-28T06:21:49.413Z,11.53
2022-09-28T06:24:52.090Z,11.70
2022-09-28T06:27:55.710Z,11.82
2022-09-28T06:31:01.963Z,11.80
2022-09-28T06:34:05.259Z,11.85
2022-09-28T06:37:10.799Z,11.92
2022-09-28T06:40:14.062Z,12.06
2022-09-28T06:43:16.641Z,12.13
2022-09-28T06:46:24.380Z,12.32
2022-09-28T06:49:30.276Z,12.52
2022-09-28T06:52:34.587Z,12.59
2022-09-28T06:55:50.124Z,12.72
2022-09-28T06:58:53.148Z,12.84
2022-09-28T07:01:55.862Z,12.80
2022-09-28T07:05:00.275Z,12.79
2022-09-28T07:08:06.618Z,12.90
2022-09-28T07:11:12.364Z,13.08
2022-09-28T07:14:27.451Z,13.29
2022-09-28T07:17:51.024Z,13.45
2022-09-28T07:20:58.342Z,13.77
2022-09-28T07:24:01.476Z,13.93
2022-09-28T07:27:08.845Z,14.02
2022-09-28T07:30:12.104Z,14.15
2022-09-28T07:33:17.185Z,14.23
2022-09-28T07:36:20.885Z,14.37
2022-09-28T07:39:24.884Z,14.31
2022-09-28T07:42:30.764Z,14.41
2022-09-28T07:45:36.117Z,14.45
2022-09-28T07:48:43.565Z,14.39
2022-09-28T07:51:46.538Z,14.26
2022-09-28T07:54:52.151Z,14.38
2022-09-28T07:58:01.120Z,14.96
2022-09-28T08:01:07.334Z,15.25
2022-09-28T08:04:10.289Z,15.55
2022-09-28T08:07:14.202Z,15.73
2022-09-28T08:10:17.363Z,15.70
2022-09-28T08:13:23.463Z,15.74
2022-09-28T08:16:30.233Z,15.59
2022-09-28T08:19:52.512Z,15.39
2022-09-28T08:22:56.904Z,15.49
2022-09-28T08:25:59.444Z,15.78
2022-09-28T08:29:03.142Z,15.99
2022-09-28T08:32:10.653Z,16.03
2022-09-28T08:35:17.950Z,15.75
2022-09-28T08:38:20.832Z,15.63
2022-09-28T08:41:39.107Z,15.69
2022-09-28T08:44:46.364Z,15.59
2022-09-28T08:48:22.025Z,15.70
2022-09-28T08:51:35.843Z,15.94
2022-09-28T08:55:00.541Z,16.18
2022-09-28T08:58:20.516Z,16.41
2022-09-28T09:01:27.666Z,16.49
2022-09-28T09:04:33.665Z,16.27
2022-09-28T09:08:01.867Z,16.05
2022-09-28T09:11:24.129Z,16.14
2022-09-28T09:15:04.022Z,16.30
2022-09-28T09:18:28.413Z,16.50
2022-09-28T09:21:44.426Z,16.37
2022-09-28T09:24:55.150Z,16.28
2022-09-28T09:28:16.230Z,15.86
2022-09-28T09:31:50.612Z,15.67
2022-09-28T09:35:09.226Z,15.61
2022-09-28T09:38:19.288Z,15.97
2022-09-28T09:41:57.473Z,16.16
2022-09-28T09:45:40.978Z,16.54
2022-09-28T09:48:59.100Z,16.92
2022-09-28T09:52:11.320Z,16.73
2022-09-28T09:55:29.676Z,16.82
2022-09-28T09:58:40.261Z,17.27
2022-09-28T10:01:43.299Z,17.60
2022-09-28T10:04:50.123Z,18.15
2022-09-28T10:08:18.185Z,18.32
2022-09-28T10:11:29.993Z,17.89
2022-09-28T10:14:32.590Z,17.59
2022-09-28T10:17:37.494Z,17.55
2022-09-28T10:20:45.053Z,17.82
2022-09-28T10:23:55.142Z,18.02
2022-09-28T10:27:05.174Z,18.10
2022-09-28T10:30:23.285Z,17.95
2022-09-28T10:33:34.128Z,17.85
2022-09-28T10:36:52.829Z,17.37
2022-09-28T10:39:56.267Z,17.48
2022-09-28T10:43:06.530Z,17.37
2022-09-28T10:46:12.955Z,17.55
2022-09-28T10:49:18.113Z,17.32
2022-09-28T10:52:35.405Z,16.98
2022-09-28T10:55:41.944Z,17.02
2022-09-28T10:58:45.689Z,16.89
2022-09-28T11:01:56.937Z,16.77
2022-09-28T11:05:02.657Z,16.83
2022-09-28T11:08:08.025Z,16.90
2022-09-28T11:11:14.519Z,17.11
2022-09-28T11:14:42.125Z,17.31
2022-09-28T11:17:46.311Z,17.19
2022-09-28T11:20:49.586Z,17.07
2022-09-28T11:24:06.446Z,17.21
2022-09-28T11:27:20.627Z,17.53
2022-09-28T11:30:48.421Z,18.16
2022-09-28T11:34:31.111Z,18.42
2022-09-28T11:37:47.209Z,18.51
2022-09-28T11:41:22.738Z,18.59
2022-09-28T11:44:32.564Z,18.78
2022-09-28T11:48:02.688Z,18.85
2022-09-28T11:51:15.442Z,18.59
2022-09-28T11:54:33.642Z,18.67
2022-09-28T11:57:40.752Z,18.79
2022-09-28T12:00:50.870Z,18.75
2022-09-28T12:04:02.834Z,18.82
2022-09-28T12:07:22.347Z,18.57
2022-09-28T12:10:47.523Z,18.63
2022-09-28T12:13:54.199Z,18.63
2022-09-28T12:17:20.090Z,18.52
2022-09-28T12:20:32.506Z,18.53
2022-09-28T12:23:39.393Z,18.70
2022-09-28T12:26:48.660Z,18.34
2022-09-28T12:30:05.002Z,18.25
2022-09-28T12:33:13.153Z,18.22
2022-09-28T12:36:47.404Z,18.05
2022-09-28T12:40:23.971Z,18.37
2022-09-28T12:43:49.509Z,18.35
2022-09-28T12:47:10.915Z,18.42
2022-09-28T12:50:45.605Z,18.61
2022-09-28T12:54:34.558Z,18.82
2022-09-28T12:58:04.662Z,18.57
2022-09-28T13:01:38.836Z,18.74
2022-09-28T13:05:13.464Z,18.91
2022-09-28T13:08:55.917Z,18.85
2022-09-28T13:12:15.647Z,18.83
2022-09-28T13:15:32.413Z,18.74
2022-09-28T13:19:14.620Z,18.49
2022-09-28T13:22:49.641Z,18.47
2022-09-28T13:26:01.680Z,18.37
2022-09-28T13:29:17.333Z,18.21
2022-09-28T13:32:20.964Z,17.99
2022-09-28T13:35:24.029Z,17.67
2022-09-28T13:38:40.020Z,17.75
2022-09-28T13:41:50.637Z,17.96
2022-09-28T13:45:11.296Z,18.12
2022-09-28T13:48:21.404Z,18.30
2022-09-28T13:51:49.684Z,18.27
2022-09-28T13:55:16.665Z,18.25
2022-09-28T13:58:32.612Z,18.21
2022-09-28T14:01:41.622Z,18.09
2022-09-28T14:05:00.910Z,18.20
2022-09-28T14:08:09.545Z,18.25
2022-09-28T14:11:27.357Z,18.51
2022-09-28T14:14:45.210Z,19.17
2022-09-28T14:17:53.625Z,19.68
2022-09-28T14:21:08.568Z,19.89
2022-09-28T14:24:42.117Z,19.81
2022-09-28T14:28:01.732Z,19.88
2022-09-28T14:31:14.627Z,19.99
2022-09-28T14:34:48.589Z,19.86
2022-09-28T14:38:16.621Z,19.75
2022-09-28T14:41:31.392Z,20.15
2022-09-28T14:45:06.293Z,20.13
2022-09-28T14:48:15.594Z,20.29
2022-09-28T14:51:30.024Z,20.03
2022-09-28T14:54:54.289Z,19.95
2022-09-28T14:58:07.808Z,19.99
2022-09-28T15:01:20.163Z,20.23
2022-09-28T15:04:28.070Z,20.19
2022-09-28T15:07:46.045Z,20.10
2022-09-28T15:10:50.543Z,20.12
2022-09-28T15:14:06.411Z,19.39
2022-09-28T15:17:11.153Z,19.21
2022-09-28T15:20:30.464Z,18.97
2022-09-28T15:23:34.697Z,18.65
2022-09-28T15:26:37.210Z,18.61
2022-09-28T15:29:40.608Z,18.55
2022-09-28T15:32:43.054Z,18.37
2022-09-28T15:35:50.043Z,18.23
2022-09-28T15:39:02.074Z,18.19
2022-09-28T15:42:06.219Z,18.44
2022-09-28T15:45:26.466Z,18.57
2022-09-28T15:48:39.278Z,18.32
2022-09-28T15:51:50.007Z,18.04
2022-09-28T15:54:54.053Z,17.76
2022-09-28T15:58:15.745Z,17.64
2022-09-28T16:01:26.877Z,17.45
2022-09-28T16:04:38.553Z,17.30
2022-09-28T16:07:41.662Z,17.16
2022-09-28T16:10:56.173Z,16.95
2022-09-28T16:14:14.639Z,16.70
2022-09-28T16:17:32.794Z,16.40
2022-09-28T16:20:37.361Z,16.38
2022-09-28T16:23:41.353Z,16.31
2022-09-28T16:26:43.975Z,16.10
2022-09-28T16:30:12.788Z,15.97
2022-09-28T16:33:28.917Z,16.00
2022-09-28T16:36:43.456Z,16.01
2022-09-28T16:39:45.896Z,16.03
2022-09-28T16:42:49.563Z,15.98
2022-09-28T16:46:00.736Z,15.92
2022-09-28T16:49:06.134Z,15.93
2022-09-28T16:52:12.271Z,15.88
2022-09-28T16:55:39.070Z,15.82
2022-09-28T16:58:39.070Z,15.84
2022-09-28T17:01:43.863Z,15.77
2022-09-28T17:04:47.829Z,15.83
2022-09-28T17:08:01.865Z,15.76
2022-09-28T17:11:24.526Z,15.76
2022-09-28T17:14:28.257Z,15.77
2022-09-28T17:17:33.993Z,15.68
2022-09-28T17:20:37.681Z,15.71
2022-09-28T17:23:40.224Z,15.66
2022-09-28T17:26:44.826Z,15.64
2022-09-28T17:29:48.098Z,15.50
2022-09-28T17:32:51.557Z,15.43
2022-09-28T17:36:00.865Z,15.24
2022-09-28T17:39:05.328Z,14.78
2022-09-28T17:42:07.863Z,14.38
2022-09-28T17:45:10.664Z,14.09
2022-09-28T17:48:19.440Z,13.63
2022-09-28T17:51:23.718Z,13.29
2022-09-28T17:54:26.749Z,13.09
2022-09-28T17:57:29.612Z,12.85
2022-09-28T18:00:32.164Z,12.77
2022-09-28T18:03:35.078Z,12.66
2022-09-28T18:06:42.249Z,12.60
2022-09-28T18:09:45.693Z,12.65
2022-09-28T18:12:49.353Z,12.54
2022-09-28T18:15:53.256Z,12.54
2022-09-28T18:18:56.246Z,12.53
2022-09-28T18:21:59.222Z,12.50
2022-09-28T18:25:01.876Z,12.49
2022-09-28T18:28:04.753Z,12.45
2022-09-28T18:31:12.128Z,12.42
2022-09-28T18:34:15.607Z,12.38
2022-09-28T18:37:18.268Z,12.36
2022-09-28T18:40:21.794Z,12.36
2022-09-28T18:43:24.453Z,12.29
2022-09-28T18:46:34.683Z,12.30
2022-09-28T18:49:37.271Z,12.27
2022-09-28T18:52:40.440Z,12.27
2022-09-28T18:55:43.424Z,12.26
2022-09-28T18:58:47.807Z,12.20
2022-09-28T19:01:51.674Z,12.14
2022-09-28T19:04:54.716Z,12.14
2022-09-28T19:07:57.314Z,12.16
2022-09-28T19:11:11.975Z,12.14
2022-09-28T19:14:15.814Z,12.18
2022-09-28T19:17:19.725Z,12.19
2022-09-28T19:20:22.383Z,12.08
2022-09-28T19:23:25.151Z,12.08
2022-09-28T19:26:28.735Z,12.08
2022-09-28T19:29:31.670Z,12.06
2022-09-28T19:32:34.340Z,12.08
2022-09-28T19:35:37.119Z,12.08
2022-09-28T19:38:40.690Z,12.05
2022-09-28T19:41:47.874Z,12.09
2022-09-28T19:44:51.049Z,12.09
2022-09-28T19:47:57.370Z,12.09
2022-09-28T19:51:04.778Z,12.14
2022-09-28T19:54:08.332Z,12.14
2022-09-28T19:57:15.963Z,12.14
2022-09-28T20:00:19.307Z,12.11
2022-09-28T20:03:22.070Z,12.09
2022-09-28T20:06:25.728Z,12.12
2022-09-28T20:09:28.630Z,12.07
2022-09-28T20:12:31.046Z,12.07
2022-09-28T20:15:35.818Z,12.09
2022-09-28T20:18:43.537Z,12.09
2022-09-28T20:21:48.113Z,12.11
2022-09-28T20:24:50.554Z,12.09
2022-09-28T20:27:53.472Z,12.10
2022-09-28T20:31:15.119Z,12.12
2022-09-28T20:34:18.038Z,12.17
2022-09-28T20:37:20.509Z,12.11
2022-09-28T20:40:23.451Z,12.17
2022-09-28T20:43:26.998Z,12.11
2022-09-28T20:46:30.117Z,12.07
2022-09-28T20:49:32.701Z,12.13
2022-09-28T20:52:35.456Z,12.09
2022-09-28T20:55:37.955Z,12.09
2022-09-28T20:58:41.207Z,12.08
2022-09-28T21:01:45.888Z,12.06
2022-09-28T21:04:48.658Z,12.04
2022-09-28T21:07:51.189Z,12.00
2022-09-28T21:10:54.218Z,11.98
2022-09-28T21:14:00.259Z,12.02
2022-09-28T21:17:03.050Z,12.02
2022-09-28T21:20:06.107Z,12.04
2022-09-28T21:23:08.937Z,12.04
2022-09-28T21:26:13.910Z,12.00
2022-09-28T21:29:18.979Z,12.01
2022-09-28T21:32:23.187Z,12.09
2022-09-28T21:35:26.079Z,12.05
2022-09-28T21:38:29.376Z,12.07
2022-09-28T21:41:32.054Z,12.02
2022-09-28T21:44:34.659Z,11.99
2022-09-28T21:47:37.564Z,12.00
2022-09-28T21:50:40.009Z,12.02
2022-09-28T21:53:42.990Z,12.05
2022-09-28T21:56:45.522Z,12.07
2022-09-28T21:59:48.282Z,12.17
2022-09-28T22:02:51.274Z,12.18
2022-09-28T22:05:54.391Z,12.20
2022-09-28T22:08:57.361Z,12.18
2022-09-28T22:12:00.190Z,12.20
2022-09-28T22:15:04.228Z,12.23
2022-09-28T22:18:07.256Z,12.24
2022-09-28T22:21:18.496Z,12.23
2022-09-28T22:24:21.311Z,12.21
2022-09-28T22:27:24.100Z,12.23
2022-09-28T22:30:26.989Z,12.23
2022-09-28T22:33:29.780Z,12.24
2022-09-28T22:36:33.167Z,12.23
2022-09-28T22:39:37.842Z,12.27
2022-09-28T22:42:40.887Z,12.26
2022-09-28T22:45:43.417Z,12.27
2022-09-28T22:48:52.640Z,12.25
2022-09-28T22:51:55.134Z,12.31
2022-09-28T22:54:57.915Z,12.28
2022-09-28T22:58:01.755Z,12.25
2022-09-28T23:01:07.815Z,12.21
2022-09-28T23:04:10.524Z,12.21
2022-09-28T23:07:13.222Z,12.14
2022-09-28T23:10:15.810Z,12.13
2022-09-28T23:13:18.881Z,12.13
2022-09-28T23:16:24.801Z,12.21
2022-09-28T23:19:27.677Z,12.17
2022-09-28T23:22:30.175Z,12.14
2022-09-28T23:25:32.963Z,12.14
2022-09-28T23:28:35.443Z,12.13
2022-09-28T23:31:39.202Z,12.14
2022-09-28T23:34:42.127Z,12.17
2022-09-28T23:37:49.683Z,12.22
2022-09-28T23:40:52.462Z,12.26
2022-09-28T23:43:55.388Z,12.24
2022-09-28T23:46:57.903Z,12.27
2022-09-28T23:50:01.035Z,12.25
2022-09-28T23:53:03.601Z,12.27
2022-09-28T23:56:06.475Z,12.28
2022-09-28T23:59:08.960Z,12.31
